sensor_id;sensor_type;location;lat;lon;timestamp;temperature;humidity
17992;DHT22;9121;50.926;5.340;2022-10-03T00:01:36;11.30;99.90
17992;DHT22;9121;50.926;5.340;2022-10-03T00:04:26;11.40;99.90
17992;DHT22;9121;50.926;5.340;2022-10-03T00:07:06;11.30;99.90
17992;DHT22;9121;50.926;5.340;2022-10-03T00:09:49;11.30;99.90
17992;DHT22;9121;50.926;5.340;2022-10-03T00:12:40;11.30;99.90
17992;DHT22;9121;50.926;5.340;2022-10-03T00:15:16;11.20;99.90
17992;DHT22;9121;50.926;5.340;2022-10-03T00:17:53;11.20;99.90
17992;DHT22;9121;50.926;5.340;2022-10-03T00:20:47;11.10;99.90
17992;DHT22;9121;50.926;5.340;2022-10-03T00:23:22;11.00;99.90
17992;DHT22;9121;50.926;5.340;2022-10-03T00:25:57;11.00;99.90
17992;DHT22;9121;50.926;5.340;2022-10-03T00:28:56;11.00;99.90
17992;DHT22;9121;50.926;5.340;2022-10-03T00:31:37;11.00;99.90
17992;DHT22;9121;50.926;5.340;2022-10-03T00:34:17;11.00;99.90
17992;DHT22;9121;50.926;5.340;2022-10-03T00:37:11;11.00;99.90
17992;DHT22;9121;50.926;5.340;2022-10-03T00:43:03;11.00;99.90
17992;DHT22;9121;50.926;5.340;2022-10-03T00:45:50;11.10;99.90
17992;DHT22;9121;50.926;5.340;2022-10-03T00:48:42;11.10;99.90
17992;DHT22;9121;50.926;5.340;2022-10-03T00:51:31;11.20;99.90
17992;DHT22;9121;50.926;5.340;2022-10-03T00:54:12;11.20;99.90
17992;DHT22;9121;50.926;5.340;2022-10-03T00:56:59;11.20;99.90
17992;DHT22;9121;50.926;5.340;2022-10-03T00:59:41;11.10;99.90
17992;DHT22;9121;50.926;5.340;2022-10-03T01:02:22;10.90;99.90
17992;DHT22;9121;50.926;5.340;2022-10-03T01:04:57;10.90;99.90
17992;DHT22;9121;50.926;5.340;2022-10-03T01:08:02;10.80;99.90
17992;DHT22;9121;50.926;5.340;2022-10-03T01:10:39;10.80;99.90
17992;DHT22;9121;50.926;5.340;2022-10-03T01:13:19;10.70;99.90
17992;DHT22;9121;50.926;5.340;2022-10-03T01:15:55;10.70;99.90
17992;DHT22;9121;50.926;5.340;2022-10-03T01:18:37;10.70;99.90
17992;DHT22;9121;50.926;5.340;2022-10-03T01:21:11;10.70;99.90
17992;DHT22;9121;50.926;5.340;2022-10-03T01:24:11;10.70;99.90
17992;DHT22;9121;50.926;5.340;2022-10-03T01:26:55;10.80;99.90
17992;DHT22;9121;50.926;5.340;2022-10-03T01:29:37;10.80;99.90
17992;DHT22;9121;50.926;5.340;2022-10-03T01:32:27;10.70;99.90
17992;DHT22;9121;50.926;5.340;2022-10-03T01:35:03;10.70;99.90
17992;DHT22;9121;50.926;5.340;2022-10-03T01:37:39;10.60;99.90
17992;DHT22;9121;50.926;5.340;2022-10-03T01:40:17;10.60;99.90
17992;DHT22;9121;50.926;5.340;2022-10-03T01:43:02;10.60;99.90
17992;DHT22;9121;50.926;5.340;2022-10-03T01:45:41;10.50;99.90
17992;DHT22;9121;50.926;5.340;2022-10-03T01:48:18;10.40;99.90
17992;DHT22;9121;50.926;5.340;2022-10-03T01:50:53;10.50;99.90
17992;DHT22;9121;50.926;5.340;2022-10-03T01:53:28;10.50;99.90
17992;DHT22;9121;50.926;5.340;2022-10-03T01:56:02;10.40;99.90
17992;DHT22;9121;50.926;5.340;2022-10-03T01:58:43;10.60;99.90
17992;DHT22;9121;50.926;5.340;2022-10-03T02:01:20;10.70;99.90
17992;DHT22;9121;50.926;5.340;2022-10-03T02:03:53;10.70;99.90
17992;DHT22;9121;50.926;5.340;2022-10-03T02:06:27;10.70;99.90
17992;DHT22;9121;50.926;5.340;2022-10-03T02:09:03;10.60;99.90
17992;DHT22;9121;50.926;5.340;2022-10-03T02:11:36;10.50;99.90
17992;DHT22;9121;50.926;5.340;2022-10-03T02:14:19;10.60;99.90
17992;DHT22;9121;50.926;5.340;2022-10-03T02:16:56;10.80;99.90
17992;DHT22;9121;50.926;5.340;2022-10-03T02:19:28;10.60;99.90
17992;DHT22;9121;50.926;5.340;2022-10-03T02:21:57;10.60;99.90
17992;DHT22;9121;50.926;5.340;2022-10-03T02:24:40;10.50;99.90
17992;DHT22;9121;50.926;5.340;2022-10-03T02:27:27;10.60;99.90
17992;DHT22;9121;50.926;5.340;2022-10-03T02:30:17;10.50;99.90
17992;DHT22;9121;50.926;5.340;2022-10-03T02:33:32;10.50;99.90
17992;DHT22;9121;50.926;5.340;2022-10-03T02:39:24;10.30;99.90
17992;DHT22;9121;50.926;5.340;2022-10-03T02:42:21;10.30;99.90
17992;DHT22;9121;50.926;5.340;2022-10-03T02:48:25;10.70;99.90
17992;DHT22;9121;50.926;5.340;2022-10-03T03:00:33;10.60;99.90
17992;DHT22;9121;50.926;5.340;2022-10-03T03:03:25;10.60;99.90
17992;DHT22;9121;50.926;5.340;2022-10-03T03:18:32;10.40;99.90
17992;DHT22;9121;50.926;5.340;2022-10-03T03:21:19;10.40;99.90
17992;DHT22;9121;50.926;5.340;2022-10-03T03:24:11;10.30;99.90
17992;DHT22;9121;50.926;5.340;2022-10-03T03:27:10;10.40;99.90
17992;DHT22;9121;50.926;5.340;2022-10-03T03:29:45;10.30;99.90
17992;DHT22;9121;50.926;5.340;2022-10-03T03:32:25;10.30;99.90
17992;DHT22;9121;50.926;5.340;2022-10-03T03:35:07;10.20;99.90
17992;DHT22;9121;50.926;5.340;2022-10-03T03:37:44;10.20;99.90
17992;DHT22;9121;50.926;5.340;2022-10-03T03:40:28;10.20;99.90
17992;DHT22;9121;50.926;5.340;2022-10-03T03:43:21;10.10;99.90
17992;DHT22;9121;50.926;5.340;2022-10-03T03:45:58;10.10;99.90
17992;DHT22;9121;50.926;5.340;2022-10-03T03:48:49;10.10;99.90
17992;DHT22;9121;50.926;5.340;2022-10-03T03:51:29;10.10;99.90
17992;DHT22;9121;50.926;5.340;2022-10-03T03:54:36;10.00;99.90
17992;DHT22;9121;50.926;5.340;2022-10-03T03:57:20;10.10;99.90
17992;DHT22;9121;50.926;5.340;2022-10-03T04:00:03;10.00;99.90
17992;DHT22;9121;50.926;5.340;2022-10-03T04:02:48;10.00;99.90
17992;DHT22;9121;50.926;5.340;2022-10-03T04:05:28;10.00;99.90
17992;DHT22;9121;50.926;5.340;2022-10-03T04:08:11;10.10;99.90
17992;DHT22;9121;50.926;5.340;2022-10-03T04:10:51;10.10;99.90
17992;DHT22;9121;50.926;5.340;2022-10-03T04:13:32;10.20;99.90
17992;DHT22;9121;50.926;5.340;2022-10-03T04:16:21;10.20;99.90
17992;DHT22;9121;50.926;5.340;2022-10-03T04:19:12;10.20;99.90
17992;DHT22;9121;50.926;5.340;2022-10-03T04:21:58;10.10;99.90
17992;DHT22;9121;50.926;5.340;2022-10-03T04:25:04;10.10;99.90
17992;DHT22;9121;50.926;5.340;2022-10-03T04:27:51;10.00;99.90
17992;DHT22;9121;50.926;5.340;2022-10-03T04:30:26;10.00;99.90
17992;DHT22;9121;50.926;5.340;2022-10-03T04:33:08;10.00;99.90
17992;DHT22;9121;50.926;5.340;2022-10-03T04:35:54;9.90;99.90
17992;DHT22;9121;50.926;5.340;2022-10-03T04:38:41;9.90;99.90
17992;DHT22;9121;50.926;5.340;2022-10-03T04:41:20;9.90;99.90
17992;DHT22;9121;50.926;5.340;2022-10-03T04:43:58;10.00;99.90
17992;DHT22;9121;50.926;5.340;2022-10-03T04:46:32;10.00;99.90
17992;DHT22;9121;50.926;5.340;2022-10-03T04:49:08;9.90;99.90
17992;DHT22;9121;50.926;5.340;2022-10-03T04:51:48;9.80;99.90
17992;DHT22;9121;50.926;5.340;2022-10-03T04:54:27;9.80;99.90
17992;DHT22;9121;50.926;5.340;2022-10-03T04:57:03;9.70;99.90
17992;DHT22;9121;50.926;5.340;2022-10-03T04:59:44;9.80;99.90
17992;DHT22;9121;50.926;5.340;2022-10-03T05:02:33;9.80;99.90
17992;DHT22;9121;50.926;5.340;2022-10-03T05:05:27;9.70;99.90
17992;DHT22;9121;50.926;5.340;2022-10-03T05:08:05;9.70;99.90
17992;DHT22;9121;50.926;5.340;2022-10-03T05:10:46;9.70;99.90
17992;DHT22;9121;50.926;5.340;2022-10-03T05:13:21;9.70;99.90
17992;DHT22;9121;50.926;5.340;2022-10-03T05:16:01;9.80;99.90
17992;DHT22;9121;50.926;5.340;2022-10-03T05:18:39;9.70;99.90
17992;DHT22;9121;50.926;5.340;2022-10-03T05:21:12;9.70;99.90
17992;DHT22;9121;50.926;5.340;2022-10-03T05:23:50;9.60;99.90
17992;DHT22;9121;50.926;5.340;2022-10-03T05:26:25;9.60;99.90
17992;DHT22;9121;50.926;5.340;2022-10-03T05:29:03;9.60;99.90
17992;DHT22;9121;50.926;5.340;2022-10-03T05:31:41;9.60;99.90
17992;DHT22;9121;50.926;5.340;2022-10-03T05:34:22;9.60;99.90
17992;DHT22;9121;50.926;5.340;2022-10-03T05:37:16;9.60;99.90
17992;DHT22;9121;50.926;5.340;2022-10-03T05:39:54;9.60;99.90
17992;DHT22;9121;50.926;5.340;2022-10-03T05:42:38;9.60;99.90
17992;DHT22;9121;50.926;5.340;2022-10-03T05:45:24;9.60;99.90
17992;DHT22;9121;50.926;5.340;2022-10-03T05:48:11;9.60;99.90
17992;DHT22;9121;50.926;5.340;2022-10-03T05:51:05;9.60;99.90
17992;DHT22;9121;50.926;5.340;2022-10-03T05:57:14;9.70;99.90
17992;DHT22;9121;50.926;5.340;2022-10-03T06:00:03;9.70;99.90
17992;DHT22;9121;50.926;5.340;2022-10-03T06:02:52;9.80;99.90
17992;DHT22;9121;50.926;5.340;2022-10-03T06:05:29;9.90;99.90
17992;DHT22;9121;50.926;5.340;2022-10-03T06:08:25;9.90;99.90
17992;DHT22;9121;50.926;5.340;2022-10-03T06:11:13;9.90;99.90
17992;DHT22;9121;50.926;5.340;2022-10-03T06:14:13;10.00;99.90
17992;DHT22;9121;50.926;5.340;2022-10-03T06:16:54;10.10;99.90
17992;DHT22;9121;50.926;5.340;2022-10-03T06:19:38;10.20;99.90
17992;DHT22;9121;50.926;5.340;2022-10-03T06:22:37;10.20;99.90
17992;DHT22;9121;50.926;5.340;2022-10-03T06:25:25;10.20;99.90
17992;DHT22;9121;50.926;5.340;2022-10-03T06:28:27;10.30;99.90
17992;DHT22;9121;50.926;5.340;2022-10-03T06:37:33;10.30;99.90
17992;DHT22;9121;50.926;5.340;2022-10-03T06:40:30;10.30;99.90
17992;DHT22;9121;50.926;5.340;2022-10-03T06:43:26;10.30;99.90
17992;DHT22;9121;50.926;5.340;2022-10-03T06:46:25;10.30;99.90
17992;DHT22;9121;50.926;5.340;2022-10-03T06:58:44;10.60;99.90
17992;DHT22;9121;50.926;5.340;2022-10-03T07:01:34;10.70;99.90
17992;DHT22;9121;50.926;5.340;2022-10-03T07:10:29;10.80;99.90
17992;DHT22;9121;50.926;5.340;2022-10-03T07:16:22;10.90;99.90
17992;DHT22;9121;50.926;5.340;2022-10-03T07:19:27;11.00;99.90
17992;DHT22;9121;50.926;5.340;2022-10-03T07:22:39;11.10;99.90
17992;DHT22;9121;50.926;5.340;2022-10-03T07:28:42;11.20;99.90
17992;DHT22;9121;50.926;5.340;2022-10-03T07:31:22;11.30;99.90
17992;DHT22;9121;50.926;5.340;2022-10-03T07:34:17;11.40;99.90
17992;DHT22;9121;50.926;5.340;2022-10-03T07:37:04;11.50;99.90
17992;DHT22;9121;50.926;5.340;2022-10-03T07:40:19;11.40;99.90
17992;DHT22;9121;50.926;5.340;2022-10-03T07:46:07;11.50;99.90
17992;DHT22;9121;50.926;5.340;2022-10-03T07:51:41;11.50;99.90
17992;DHT22;9121;50.926;5.340;2022-10-03T07:54:36;11.60;99.90
17992;DHT22;9121;50.926;5.340;2022-10-03T07:57:23;11.70;99.90
17992;DHT22;9121;50.926;5.340;2022-10-03T08:00:19;11.70;99.90
17992;DHT22;9121;50.926;5.340;2022-10-03T08:03:27;11.90;99.90
17992;DHT22;9121;50.926;5.340;2022-10-03T08:06:15;12.10;99.90
17992;DHT22;9121;50.926;5.340;2022-10-03T08:14:54;12.50;99.90
17992;DHT22;9121;50.926;5.340;2022-10-03T08:17:51;12.70;99.90
17992;DHT22;9121;50.926;5.340;2022-10-03T08:20:33;13.00;99.90
17992;DHT22;9121;50.926;5.340;2022-10-03T08:23:20;13.00;99.90
17992;DHT22;9121;50.926;5.340;2022-10-03T08:25:59;12.90;99.90
17992;DHT22;9121;50.926;5.340;2022-10-03T08:28:43;12.90;99.90
17992;DHT22;9121;50.926;5.340;2022-10-03T08:31:29;13.00;99.90
17992;DHT22;9121;50.926;5.340;2022-10-03T08:34:22;13.00;99.90
17992;DHT22;9121;50.926;5.340;2022-10-03T08:37:24;13.20;99.90
17992;DHT22;9121;50.926;5.340;2022-10-03T08:46:13;13.50;99.90
17992;DHT22;9121;50.926;5.340;2022-10-03T08:48:58;13.70;99.90
17992;DHT22;9121;50.926;5.340;2022-10-03T08:51:49;13.90;99.90
17992;DHT22;9121;50.926;5.340;2022-10-03T08:54:50;14.10;99.90
17992;DHT22;9121;50.926;5.340;2022-10-03T08:57:53;14.20;99.90
17992;DHT22;9121;50.926;5.340;2022-10-03T09:00:28;14.30;99.90
17992;DHT22;9121;50.926;5.340;2022-10-03T09:06:35;14.20;99.90
17992;DHT22;9121;50.926;5.340;2022-10-03T09:12:29;14.20;99.90
17992;DHT22;9121;50.926;5.340;2022-10-03T09:18:49;14.30;99.90
17992;DHT22;9121;50.926;5.340;2022-10-03T09:21:48;14.40;99.90
17992;DHT22;9121;50.926;5.340;2022-10-03T09:24:55;14.50;99.90
17992;DHT22;9121;50.926;5.340;2022-10-03T09:27:47;14.50;99.90
17992;DHT22;9121;50.926;5.340;2022-10-03T09:30:24;14.50;99.90
17992;DHT22;9121;50.926;5.340;2022-10-03T09:33:30;14.70;99.90
17992;DHT22;9121;50.926;5.340;2022-10-03T09:39:42;15.00;99.90
17992;DHT22;9121;50.926;5.340;2022-10-03T09:42:38;15.00;99.90
17992;DHT22;9121;50.926;5.340;2022-10-03T09:48:18;15.20;99.90
17992;DHT22;9121;50.926;5.340;2022-10-03T09:51:17;15.10;99.90
17992;DHT22;9121;50.926;5.340;2022-10-03T09:57:46;15.20;99.90
17992;DHT22;9121;50.926;5.340;2022-10-03T10:00:21;15.40;99.90
17992;DHT22;9121;50.926;5.340;2022-10-03T10:12:08;15.70;99.90
17992;DHT22;9121;50.926;5.340;2022-10-03T10:28:02;16.60;99.90
17992;DHT22;9121;50.926;5.340;2022-10-03T10:37:13;17.10;99.90
17992;DHT22;9121;50.926;5.340;2022-10-03T10:43:42;17.00;99.90
17992;DHT22;9121;50.926;5.340;2022-10-03T10:46:32;17.10;99.90
17992;DHT22;9121;50.926;5.340;2022-10-03T10:55:56;17.00;99.90
17992;DHT22;9121;50.926;5.340;2022-10-03T10:59:20;17.20;99.90
17992;DHT22;9121;50.926;5.340;2022-10-03T11:17:38;17.00;99.90
17992;DHT22;9121;50.926;5.340;2022-10-03T11:20:36;17.20;99.90
17992;DHT22;9121;50.926;5.340;2022-10-03T11:30:19;17.30;99.90
17992;DHT22;9121;50.926;5.340;2022-10-03T11:33:36;17.30;99.90
17992;DHT22;9121;50.926;5.340;2022-10-03T11:36:25;17.30;99.90
17992;DHT22;9121;50.926;5.340;2022-10-03T11:39:01;17.30;99.90
17992;DHT22;9121;50.926;5.340;2022-10-03T11:41:39;17.20;99.90
17992;DHT22;9121;50.926;5.340;2022-10-03T11:44:20;17.20;99.90
17992;DHT22;9121;50.926;5.340;2022-10-03T11:46:58;17.20;99.90
17992;DHT22;9121;50.926;5.340;2022-10-03T11:49:56;17.10;99.90
17992;DHT22;9121;50.926;5.340;2022-10-03T11:52:29;17.10;99.90
17992;DHT22;9121;50.926;5.340;2022-10-03T11:55:24;17.10;99.90
17992;DHT22;9121;50.926;5.340;2022-10-03T11:58:07;17.10;99.90
17992;DHT22;9121;50.926;5.340;2022-10-03T12:00:40;17.00;99.90
17992;DHT22;9121;50.926;5.340;2022-10-03T12:03:17;17.20;99.90
17992;DHT22;9121;50.926;5.340;2022-10-03T12:05:55;17.60;99.90
17992;DHT22;9121;50.926;5.340;2022-10-03T12:08:40;18.20;99.90
17992;DHT22;9121;50.926;5.340;2022-10-03T12:11:24;18.70;99.90
17992;DHT22;9121;50.926;5.340;2022-10-03T12:14:16;18.90;99.90
17992;DHT22;9121;50.926;5.340;2022-10-03T12:16:57;18.70;99.90
17992;DHT22;9121;50.926;5.340;2022-10-03T12:19:31;18.50;99.90
17992;DHT22;9121;50.926;5.340;2022-10-03T12:22:07;18.20;99.90
17992;DHT22;9121;50.926;5.340;2022-10-03T12:24:38;17.80;99.90
17992;DHT22;9121;50.926;5.340;2022-10-03T12:27:15;17.80;99.90
17992;DHT22;9121;50.926;5.340;2022-10-03T12:29:53;17.70;99.90
17992;DHT22;9121;50.926;5.340;2022-10-03T12:32:31;17.70;99.90
17992;DHT22;9121;50.926;5.340;2022-10-03T12:35:18;17.90;99.90
17992;DHT22;9121;50.926;5.340;2022-10-03T12:38:06;17.90;99.90
17992;DHT22;9121;50.926;5.340;2022-10-03T12:40:39;17.90;99.90
17992;DHT22;9121;50.926;5.340;2022-10-03T12:43:20;18.40;99.90
17992;DHT22;9121;50.926;5.340;2022-10-03T12:45:53;19.50;99.90
17992;DHT22;9121;50.926;5.340;2022-10-03T12:48:43;20.30;99.90
17992;DHT22;9121;50.926;5.340;2022-10-03T12:51:22;21.30;99.90
17992;DHT22;9121;50.926;5.340;2022-10-03T12:54:01;22.00;99.90
17992;DHT22;9121;50.926;5.340;2022-10-03T12:56:39;22.20;99.90
17992;DHT22;9121;50.926;5.340;2022-10-03T12:59:16;22.50;99.90
17992;DHT22;9121;50.926;5.340;2022-10-03T13:02:12;23.20;99.90
17992;DHT22;9121;50.926;5.340;2022-10-03T13:04:49;23.60;99.90
17992;DHT22;9121;50.926;5.340;2022-10-03T13:07:25;23.20;99.90
17992;DHT22;9121;50.926;5.340;2022-10-03T13:10:03;23.00;99.90
17992;DHT22;9121;50.926;5.340;2022-10-03T13:12:39;22.90;99.90
17992;DHT22;9121;50.926;5.340;2022-10-03T13:18:31;23.10;99.90
17992;DHT22;9121;50.926;5.340;2022-10-03T13:21:04;22.70;99.90
17992;DHT22;9121;50.926;5.340;2022-10-03T13:23:41;22.80;99.90
17992;DHT22;9121;50.926;5.340;2022-10-03T13:26:16;22.70;99.90
17992;DHT22;9121;50.926;5.340;2022-10-03T13:29:05;22.80;99.90
17992;DHT22;9121;50.926;5.340;2022-10-03T13:31:48;22.40;99.90
17992;DHT22;9121;50.926;5.340;2022-10-03T13:34:23;21.90;99.90
17992;DHT22;9121;50.926;5.340;2022-10-03T13:36:54;21.40;99.90
17992;DHT22;9121;50.926;5.340;2022-10-03T13:39:23;21.20;99.90
17992;DHT22;9121;50.926;5.340;2022-10-03T13:42:01;21.10;99.90
17992;DHT22;9121;50.926;5.340;2022-10-03T13:44:37;21.00;99.90
17992;DHT22;9121;50.926;5.340;2022-10-03T13:47:25;20.90;99.90
17992;DHT22;9121;50.926;5.340;2022-10-03T13:49:55;20.90;99.90
17992;DHT22;9121;50.926;5.340;2022-10-03T13:52:32;20.80;99.90
17992;DHT22;9121;50.926;5.340;2022-10-03T13:55:16;20.80;99.90
17992;DHT22;9121;50.926;5.340;2022-10-03T13:57:56;20.70;99.90
17992;DHT22;9121;50.926;5.340;2022-10-03T14:00:30;20.70;99.90
17992;DHT22;9121;50.926;5.340;2022-10-03T14:03:10;20.80;99.90
17992;DHT22;9121;50.926;5.340;2022-10-03T14:06:11;20.80;99.90
17992;DHT22;9121;50.926;5.340;2022-10-03T14:11:44;20.50;99.90
17992;DHT22;9121;50.926;5.340;2022-10-03T14:14:51;20.40;99.90
17992;DHT22;9121;50.926;5.340;2022-10-03T14:17:25;20.30;99.90
17992;DHT22;9121;50.926;5.340;2022-10-03T14:20:09;20.40;99.90
17992;DHT22;9121;50.926;5.340;2022-10-03T14:22:51;20.80;99.90
17992;DHT22;9121;50.926;5.340;2022-10-03T14:25:25;21.10;99.90
17992;DHT22;9121;50.926;5.340;2022-10-03T14:27:55;21.40;99.90
17992;DHT22;9121;50.926;5.340;2022-10-03T14:30:29;21.50;99.90
17992;DHT22;9121;50.926;5.340;2022-10-03T14:33:13;21.20;99.90
17992;DHT22;9121;50.926;5.340;2022-10-03T14:35:52;21.00;99.90
17992;DHT22;9121;50.926;5.340;2022-10-03T14:38:29;20.80;99.90
17992;DHT22;9121;50.926;5.340;2022-10-03T14:41:18;20.50;99.90
17992;DHT22;9121;50.926;5.340;2022-10-03T14:43:49;20.10;99.90
17992;DHT22;9121;50.926;5.340;2022-10-03T14:46:20;20.10;99.90
17992;DHT22;9121;50.926;5.340;2022-10-03T14:48:51;20.00;99.90
17992;DHT22;9121;50.926;5.340;2022-10-03T14:51:27;19.90;99.90
17992;DHT22;9121;50.926;5.340;2022-10-03T14:53:57;19.70;99.90
17992;DHT22;9121;50.926;5.340;2022-10-03T14:56:28;19.50;99.90
17992;DHT22;9121;50.926;5.340;2022-10-03T14:58:59;19.50;99.90
17992;DHT22;9121;50.926;5.340;2022-10-03T15:01:28;19.50;99.90
17992;DHT22;9121;50.926;5.340;2022-10-03T15:04:00;19.40;99.90
17992;DHT22;9121;50.926;5.340;2022-10-03T15:09:27;19.10;99.90
17992;DHT22;9121;50.926;5.340;2022-10-03T15:12:02;19.00;99.90
17992;DHT22;9121;50.926;5.340;2022-10-03T15:14:34;18.90;99.90
17992;DHT22;9121;50.926;5.340;2022-10-03T15:17:13;19.00;99.90
17992;DHT22;9121;50.926;5.340;2022-10-03T15:19:45;18.90;99.90
17992;DHT22;9121;50.926;5.340;2022-10-03T15:22:24;18.90;99.90
17992;DHT22;9121;50.926;5.340;2022-10-03T15:24:57;18.90;99.90
17992;DHT22;9121;50.926;5.340;2022-10-03T15:27:25;18.80;99.90
17992;DHT22;9121;50.926;5.340;2022-10-03T15:29:56;19.00;99.90
17992;DHT22;9121;50.926;5.340;2022-10-03T15:32:29;19.00;99.90
17992;DHT22;9121;50.926;5.340;2022-10-03T15:35:00;18.90;99.90
17992;DHT22;9121;50.926;5.340;2022-10-03T15:37:30;18.80;99.90
17992;DHT22;9121;50.926;5.340;2022-10-03T15:40:06;18.80;99.90
17992;DHT22;9121;50.926;5.340;2022-10-03T15:42:46;18.80;99.90
17992;DHT22;9121;50.926;5.340;2022-10-03T15:45:20;18.90;99.90
17992;DHT22;9121;50.926;5.340;2022-10-03T15:47:50;18.90;99.90
17992;DHT22;9121;50.926;5.340;2022-10-03T15:50:21;19.00;99.90
17992;DHT22;9121;50.926;5.340;2022-10-03T15:52:51;18.90;99.90
17992;DHT22;9121;50.926;5.340;2022-10-03T15:55:23;18.80;99.90
17992;DHT22;9121;50.926;5.340;2022-10-03T15:57:59;18.90;99.90
17992;DHT22;9121;50.926;5.340;2022-10-03T16:00:29;18.90;99.90
17992;DHT22;9121;50.926;5.340;2022-10-03T16:03:07;18.80;99.90
17992;DHT22;9121;50.926;5.340;2022-10-03T16:05:42;18.80;99.90
17992;DHT22;9121;50.926;5.340;2022-10-03T16:08:16;18.70;99.90
17992;DHT22;9121;50.926;5.340;2022-10-03T16:10:52;18.60;99.90
17992;DHT22;9121;50.926;5.340;2022-10-03T16:13:27;18.50;99.90
17992;DHT22;9121;50.926;5.340;2022-10-03T16:16:08;18.40;99.90
17992;DHT22;9121;50.926;5.340;2022-10-03T16:21:37;18.10;99.90
17992;DHT22;9121;50.926;5.340;2022-10-03T16:24:16;18.00;99.90
17992;DHT22;9121;50.926;5.340;2022-10-03T16:26:50;18.00;99.90
17992;DHT22;9121;50.926;5.340;2022-10-03T16:29:21;17.80;99.90
17992;DHT22;9121;50.926;5.340;2022-10-03T16:31:51;17.80;99.90
17992;DHT22;9121;50.926;5.340;2022-10-03T16:34:23;17.80;99.90
17992;DHT22;9121;50.926;5.340;2022-10-03T16:36:51;17.70;99.90
17992;DHT22;9121;50.926;5.340;2022-10-03T16:39:21;17.60;99.90
17992;DHT22;9121;50.926;5.340;2022-10-03T16:41:51;17.60;99.90
17992;DHT22;9121;50.926;5.340;2022-10-03T16:44:23;17.40;99.90
17992;DHT22;9121;50.926;5.340;2022-10-03T16:46:53;17.40;99.90
17992;DHT22;9121;50.926;5.340;2022-10-03T16:49:32;17.30;99.90
17992;DHT22;9121;50.926;5.340;2022-10-03T16:52:20;17.30;99.90
17992;DHT22;9121;50.926;5.340;2022-10-03T16:54:49;17.20;99.90
17992;DHT22;9121;50.926;5.340;2022-10-03T16:57:30;17.10;99.90
17992;DHT22;9121;50.926;5.340;2022-10-03T16:59:58;17.10;99.90
17992;DHT22;9121;50.926;5.340;2022-10-03T17:02:31;17.00;99.90
17992;DHT22;9121;50.926;5.340;2022-10-03T17:05:03;16.90;99.90
17992;DHT22;9121;50.926;5.340;2022-10-03T17:07:37;16.90;99.90
17992;DHT22;9121;50.926;5.340;2022-10-03T17:10:23;16.90;99.90
17992;DHT22;9121;50.926;5.340;2022-10-03T17:12:55;16.90;99.90
17992;DHT22;9121;50.926;5.340;2022-10-03T17:15:27;16.80;99.90
17992;DHT22;9121;50.926;5.340;2022-10-03T17:17:56;16.80;99.90
17992;DHT22;9121;50.926;5.340;2022-10-03T17:20:37;16.70;99.90
17992;DHT22;9121;50.926;5.340;2022-10-03T17:23:10;16.70;99.90
17992;DHT22;9121;50.926;5.340;2022-10-03T17:25:49;16.50;99.90
17992;DHT22;9121;50.926;5.340;2022-10-03T17:28:26;16.40;99.90
17992;DHT22;9121;50.926;5.340;2022-10-03T17:30:59;16.30;99.90
17992;DHT22;9121;50.926;5.340;2022-10-03T17:33:33;16.30;99.90
17992;DHT22;9121;50.926;5.340;2022-10-03T17:36:26;16.30;99.90
17992;DHT22;9121;50.926;5.340;2022-10-03T17:39:01;16.20;99.90
17992;DHT22;9121;50.926;5.340;2022-10-03T17:41:34;16.10;99.90
17992;DHT22;9121;50.926;5.340;2022-10-03T17:44:14;16.10;99.90
17992;DHT22;9121;50.926;5.340;2022-10-03T17:46:52;16.10;99.90
17992;DHT22;9121;50.926;5.340;2022-10-03T17:49:39;16.10;99.90
17992;DHT22;9121;50.926;5.340;2022-10-03T17:52:14;16.10;99.90
17992;DHT22;9121;50.926;5.340;2022-10-03T17:54:45;16.10;99.90
17992;DHT22;9121;50.926;5.340;2022-10-03T17:57:18;16.00;99.90
17992;DHT22;9121;50.926;5.340;2022-10-03T17:59:52;16.00;99.90
17992;DHT22;9121;50.926;5.340;2022-10-03T18:02:24;16.00;99.90
17992;DHT22;9121;50.926;5.340;2022-10-03T18:05:07;16.10;99.90
17992;DHT22;9121;50.926;5.340;2022-10-03T18:07:39;16.00;99.90
17992;DHT22;9121;50.926;5.340;2022-10-03T18:10:18;16.00;99.90
17992;DHT22;9121;50.926;5.340;2022-10-03T18:12:48;16.00;99.90
17992;DHT22;9121;50.926;5.340;2022-10-03T18:15:38;15.90;99.90
17992;DHT22;9121;50.926;5.340;2022-10-03T18:18:45;15.80;99.90
17992;DHT22;9121;50.926;5.340;2022-10-03T18:21:17;15.80;99.90
17992;DHT22;9121;50.926;5.340;2022-10-03T18:24:12;15.70;99.90
17992;DHT22;9121;50.926;5.340;2022-10-03T18:26:44;15.70;99.90
17992;DHT22;9121;50.926;5.340;2022-10-03T18:29:30;15.70;99.90
17992;DHT22;9121;50.926;5.340;2022-10-03T18:32:11;15.60;99.90
17992;DHT22;9121;50.926;5.340;2022-10-03T18:34:43;15.60;99.90
17992;DHT22;9121;50.926;5.340;2022-10-03T18:40:01;15.50;99.90
17992;DHT22;9121;50.926;5.340;2022-10-03T18:42:30;15.40;99.90
17992;DHT22;9121;50.926;5.340;2022-10-03T18:45:00;15.40;99.90
17992;DHT22;9121;50.926;5.340;2022-10-03T18:47:31;15.30;99.90
17992;DHT22;9121;50.926;5.340;2022-10-03T18:50:04;15.40;99.90
17992;DHT22;9121;50.926;5.340;2022-10-03T18:52:40;15.40;99.90
17992;DHT22;9121;50.926;5.340;2022-10-03T18:55:17;15.40;99.90
17992;DHT22;9121;50.926;5.340;2022-10-03T18:57:50;15.40;99.90
17992;DHT22;9121;50.926;5.340;2022-10-03T19:00:24;15.40;99.90
17992;DHT22;9121;50.926;5.340;2022-10-03T19:02:53;15.30;99.90
17992;DHT22;9121;50.926;5.340;2022-10-03T19:05:25;15.20;99.90
17992;DHT22;9121;50.926;5.340;2022-10-03T19:08:03;15.10;99.90
17992;DHT22;9121;50.926;5.340;2022-10-03T19:10:42;15.10;99.90
17992;DHT22;9121;50.926;5.340;2022-10-03T19:13:25;15.00;99.90
17992;DHT22;9121;50.926;5.340;2022-10-03T19:16:17;15.00;99.90
17992;DHT22;9121;50.926;5.340;2022-10-03T19:18:57;14.90;99.90
17992;DHT22;9121;50.926;5.340;2022-10-03T19:21:27;14.80;99.90
17992;DHT22;9121;50.926;5.340;2022-10-03T19:24:00;14.70;99.90
17992;DHT22;9121;50.926;5.340;2022-10-03T19:26:33;14.70;99.90
17992;DHT22;9121;50.926;5.340;2022-10-03T19:29:03;14.80;99.90
17992;DHT22;9121;50.926;5.340;2022-10-03T19:31:36;14.80;99.90
17992;DHT22;9121;50.926;5.340;2022-10-03T19:34:13;14.80;99.90
17992;DHT22;9121;50.926;5.340;2022-10-03T19:36:41;14.80;99.90
17992;DHT22;9121;50.926;5.340;2022-10-03T19:39:12;14.70;99.90
17992;DHT22;9121;50.926;5.340;2022-10-03T19:41:48;14.70;99.90
17992;DHT22;9121;50.926;5.340;2022-10-03T19:44:19;14.60;99.90
17992;DHT22;9121;50.926;5.340;2022-10-03T19:47:05;14.50;99.90
17992;DHT22;9121;50.926;5.340;2022-10-03T19:49:47;14.50;99.90
17992;DHT22;9121;50.926;5.340;2022-10-03T19:52:23;14.60;99.90
17992;DHT22;9121;50.926;5.340;2022-10-03T19:54:58;14.50;99.90
17992;DHT22;9121;50.926;5.340;2022-10-03T19:57:40;14.60;99.90
17992;DHT22;9121;50.926;5.340;2022-10-03T20:00:21;14.60;99.90
17992;DHT22;9121;50.926;5.340;2022-10-03T20:02:54;14.50;99.90
17992;DHT22;9121;50.926;5.340;2022-10-03T20:05:25;14.40;99.90
17992;DHT22;9121;50.926;5.340;2022-10-03T20:08:00;14.40;99.90
17992;DHT22;9121;50.926;5.340;2022-10-03T20:10:46;14.30;99.90
17992;DHT22;9121;50.926;5.340;2022-10-03T20:13:19;14.20;99.90
17992;DHT22;9121;50.926;5.340;2022-10-03T20:15:48;14.20;99.90